createdAt,value
2018-09-01T00:00:20.309Z,15.65
2018-09-01T00:01:20.336Z,15.59
2018-09-01T00:02:20.391Z,15.62
2018-09-01T00:03:20.357Z,15.60
2018-09-01T00:04:20.381Z,15.57
2018-09-01T00:05:20.386Z,15.50
2018-09-01T00:06:20.420Z,15.53
2018-09-01T00:07:20.426Z,15.46
2018-09-01T00:08:20.437Z,15.51
2018-09-01T00:09:20.456Z,15.47
2018-09-01T00:10:20.460Z,15.31
2018-09-01T00:11:20.558Z,15.43
2018-09-01T00:12:20.492Z,15.36
2018-09-01T00:13:20.513Z,15.38
2018-09-01T00:14:20.543Z,15.27
2018-09-01T00:15:20.535Z,15.25
2018-09-01T00:16:20.620Z,15.29
2018-09-01T00:17:20.566Z,15.23
2018-09-01T00:18:20.589Z,15.21
2018-09-01T00:19:20.593Z,15.25
2018-09-01T00:20:20.613Z,15.16
2018-09-01T00:21:20.632Z,15.23
2018-09-01T00:22:20.640Z,15.19
2018-09-01T00:23:20.656Z,15.23
2018-09-01T00:24:20.674Z,15.17
2018-09-01T00:25:20.689Z,15.17
2018-09-01T00:26:20.698Z,15.06
2018-09-01T00:27:20.706Z,15.10
2018-09-01T00:28:20.723Z,15.10
2018-09-01T00:29:20.744Z,15.01
2018-09-01T00:30:20.764Z,15.03
2018-09-01T00:31:20.794Z,15.01
2018-09-01T00:32:20.791Z,15.03
2018-09-01T00:33:20.804Z,14.99
2018-09-01T00:34:20.811Z,15.06
2018-09-01T00:35:20.828Z,15.02
2018-09-01T00:36:20.845Z,14.94
2018-09-01T00:37:20.898Z,14.94
2018-09-01T00:38:21.176Z,14.89
2018-09-01T00:39:20.887Z,14.83
2018-09-01T00:40:20.904Z,14.78
2018-09-01T00:41:20.929Z,14.83
2018-09-01T00:42:20.931Z,14.72
2018-09-01T00:43:20.948Z,14.80
2018-09-01T00:44:20.961Z,14.70
2018-09-01T00:45:20.977Z,14.70
2018-09-01T00:46:20.990Z,14.68
2018-09-01T00:47:21.011Z,14.73
2018-09-01T00:48:21.024Z,14.73
2018-09-01T00:49:21.036Z,14.73
2018-09-01T00:50:21.050Z,14.75
2018-09-01T00:51:21.064Z,14.70
2018-09-01T00:52:21.094Z,14.62
2018-09-01T00:53:21.095Z,14.64
2018-09-01T00:54:21.117Z,14.62
2018-09-01T00:55:21.123Z,14.64
2018-09-01T00:56:21.142Z,14.60
2018-09-01T00:57:21.156Z,14.58
2018-09-01T00:58:21.182Z,14.60
2018-09-01T00:59:21.187Z,14.58
2018-09-01T01:00:21.219Z,14.58
2018-09-01T01:01:21.213Z,14.57
2018-09-01T01:02:21.230Z,14.50
2018-09-01T01:03:21.246Z,14.57
2018-09-01T01:04:21.579Z,14.54
2018-09-01T01:05:21.289Z,14.52
2018-09-01T01:06:21.293Z,14.52
2018-09-01T01:07:21.302Z,14.57
2018-09-01T01:08:21.318Z,14.57
2018-09-01T01:09:21.340Z,14.51
2018-09-01T01:10:21.347Z,14.52
2018-09-01T01:11:21.361Z,14.46
2018-09-01T01:12:21.378Z,14.47
2018-09-01T01:13:21.393Z,14.50
2018-09-01T01:14:21.421Z,14.39
2018-09-01T01:15:21.424Z,14.33
2018-09-01T01:16:21.436Z,14.33
2018-09-01T01:17:21.452Z,14.35
2018-09-01T01:18:21.467Z,14.22
2018-09-01T01:19:21.486Z,14.39
2018-09-01T01:20:21.503Z,14.24
2018-09-01T01:21:21.511Z,14.21
2018-09-01T01:22:21.528Z,14.25
2018-09-01T01:23:21.546Z,14.25
2018-09-01T01:24:21.555Z,14.25
2018-09-01T01:25:21.570Z,14.22
2018-09-01T01:26:21.583Z,14.25
2018-09-01T01:27:21.600Z,14.28
2018-09-01T01:28:21.612Z,14.25
2018-09-01T01:29:21.628Z,14.20
2018-09-01T01:30:21.653Z,14.15
2018-09-01T01:31:21.656Z,14.10
2018-09-01T01:32:21.674Z,14.10
2018-09-01T01:33:21.694Z,14.10
2018-09-01T01:34:21.697Z,14.12
2018-09-01T01:35:22.021Z,14.09
2018-09-01T01:36:21.756Z,14.03
2018-09-01T01:37:21.741Z,14.06
2018-09-01T01:38:21.755Z,14.04
2018-09-01T01:39:21.774Z,14.06
2018-09-01T01:40:21.785Z,14.04
2018-09-01T01:41:21.801Z,14.03
2018-09-01T01:42:21.813Z,14.06
2018-09-01T01:43:21.827Z,14.09
2018-09-01T01:44:21.881Z,14.00
2018-09-01T01:45:21.859Z,13.96
2018-09-01T01:46:21.868Z,13.96
2018-09-01T01:47:21.883Z,13.95
2018-09-01T01:48:21.899Z,13.95
2018-09-01T01:49:21.911Z,13.95
2018-09-01T01:50:21.925Z,13.96
2018-09-01T01:51:21.940Z,13.91
2018-09-01T01:52:21.952Z,13.91
2018-09-01T01:53:21.967Z,13.88
2018-09-01T01:54:21.988Z,13.97
2018-09-01T01:55:21.998Z,13.89
2018-09-01T01:56:22.010Z,13.92
2018-09-01T01:57:22.032Z,13.84
2018-09-01T01:58:22.038Z,13.89
2018-09-01T01:59:22.061Z,13.89
2018-09-01T02:00:22.065Z,13.87
2018-09-01T02:01:22.079Z,13.89
2018-09-01T02:02:22.095Z,13.85
2018-09-01T02:03:22.128Z,13.82
2018-09-01T02:04:22.145Z,13.84
2018-09-01T02:05:22.134Z,13.84
2018-09-01T02:06:22.150Z,13.88
2018-09-01T02:07:22.186Z,13.81
2018-09-01T02:08:22.184Z,13.78
2018-09-01T02:09:22.191Z,13.75
2018-09-01T02:10:22.206Z,13.73
2018-09-01T02:11:22.219Z,13.69
2018-09-01T02:12:22.234Z,13.78
2018-09-01T02:13:22.248Z,13.71
2018-09-01T02:14:22.276Z,13.75
2018-09-01T02:15:22.275Z,13.70
2018-09-01T02:16:22.291Z,13.75
2018-09-01T02:17:22.301Z,13.71
2018-09-01T02:18:22.313Z,13.75
2018-09-01T02:19:22.330Z,13.69
2018-09-01T02:20:22.344Z,13.71
2018-09-01T02:21:22.360Z,13.75
2018-09-01T02:22:22.371Z,13.69
2018-09-01T02:23:22.388Z,13.71
2018-09-01T02:24:22.398Z,13.57
2018-09-01T02:25:22.414Z,13.52
2018-09-01T02:26:22.428Z,13.63
2018-09-01T02:27:22.438Z,13.57
2018-09-01T02:28:22.453Z,13.64
2018-09-01T02:29:22.466Z,13.62
2018-09-01T02:30:22.479Z,13.60
2018-09-01T02:31:22.496Z,13.66
2018-09-01T02:32:22.512Z,13.66
2018-09-01T02:33:22.527Z,13.51
2018-09-01T02:34:22.534Z,13.54
2018-09-01T02:35:22.548Z,13.49
2018-09-01T02:36:22.564Z,13.52
2018-09-01T02:37:22.584Z,13.51
2018-09-01T02:38:22.592Z,13.51
2018-09-01T02:39:22.623Z,13.44
2018-09-01T02:40:22.655Z,13.51
2018-09-01T02:41:22.632Z,13.46
2018-09-01T02:42:22.645Z,13.46
2018-09-01T02:43:22.659Z,13.38
2018-09-01T02:44:22.675Z,13.39
2018-09-01T02:45:22.691Z,13.30
2018-09-01T02:46:22.702Z,13.25
2018-09-01T02:47:22.718Z,13.29
2018-09-01T02:48:22.729Z,13.23
2018-09-01T02:49:22.742Z,13.17
2018-09-01T02:50:22.766Z,13.14
2018-09-01T02:51:22.771Z,13.10
2018-09-01T02:52:22.784Z,13.15
2018-09-01T02:53:22.800Z,13.14
2018-09-01T02:54:22.814Z,13.14
2018-09-01T02:55:22.826Z,13.17
2018-09-01T02:56:22.839Z,13.12
2018-09-01T02:57:22.853Z,13.15
2018-09-01T02:58:22.867Z,13.14
2018-09-01T02:59:22.878Z,13.12
2018-09-01T03:00:22.897Z,13.17
2018-09-01T03:01:22.907Z,13.12
2018-09-01T03:02:22.920Z,13.20
2018-09-01T03:03:22.937Z,13.17
2018-09-01T03:04:22.952Z,13.14
2018-09-01T03:05:22.962Z,13.19
2018-09-01T03:06:22.976Z,13.19
2018-09-01T03:07:22.989Z,13.14
2018-09-01T03:08:23.006Z,13.15
2018-09-01T03:09:23.019Z,13.19
2018-09-01T03:10:23.031Z,13.11
2018-09-01T03:11:23.043Z,13.15
2018-09-01T03:12:23.058Z,13.07
2018-09-01T03:13:23.072Z,13.04
2018-09-01T03:14:23.134Z,13.05
2018-09-01T03:15:23.100Z,13.05
2018-09-01T03:16:23.113Z,13.05
2018-09-01T03:17:23.128Z,13.04
2018-09-01T03:18:23.144Z,13.05
2018-09-01T03:19:23.153Z,13.08
2018-09-01T03:20:23.168Z,13.01
2018-09-01T03:21:23.220Z,12.96
2018-09-01T03:22:23.194Z,12.97
2018-09-01T03:23:23.206Z,12.97
2018-09-01T03:24:23.232Z,13.07
2018-09-01T03:25:23.236Z,13.03
2018-09-01T03:26:23.247Z,13.00
2018-09-01T03:27:23.261Z,12.93
2018-09-01T03:28:23.275Z,12.93
2018-09-01T03:29:23.289Z,12.93
2018-09-01T03:30:23.303Z,12.95
2018-09-01T03:31:23.316Z,12.93
2018-09-01T03:32:23.329Z,13.04
2018-09-01T03:33:23.343Z,12.95
2018-09-01T03:34:23.355Z,12.96
2018-09-01T03:35:23.375Z,12.89
2018-09-01T03:36:23.386Z,12.87
2018-09-01T03:37:23.399Z,12.87
2018-09-01T03:38:23.416Z,12.87
2018-09-01T03:39:23.427Z,12.89
2018-09-01T03:40:23.449Z,12.85
2018-09-01T03:41:23.451Z,12.78
2018-09-01T03:42:23.465Z,12.79
2018-09-01T03:43:23.493Z,12.82
2018-09-01T03:44:23.571Z,12.82
2018-09-01T03:45:23.571Z,12.78
2018-09-01T03:46:23.524Z,12.78
2018-09-01T03:47:23.531Z,12.78
2018-09-01T03:48:23.546Z,12.79
2018-09-01T03:49:23.580Z,12.77
2018-09-01T03:50:23.577Z,12.78
2018-09-01T03:51:23.584Z,12.74
2018-09-01T03:52:23.600Z,12.72
2018-09-01T03:53:23.613Z,12.72
2018-09-01T03:54:23.626Z,12.68
2018-09-01T03:55:23.642Z,12.74
2018-09-01T03:56:23.660Z,12.60
2018-09-01T03:57:23.671Z,12.67
2018-09-01T03:58:23.680Z,12.71
2018-09-01T03:59:23.703Z,12.56
2018-09-01T04:00:23.707Z,12.67
2018-09-01T04:01:23.725Z,12.68
2018-09-01T04:02:23.734Z,12.64
2018-09-01T04:03:23.750Z,12.64
2018-09-01T04:04:23.766Z,12.65
2018-09-01T04:05:23.776Z,12.65
2018-09-01T04:06:23.793Z,12.56
2018-09-01T04:07:23.801Z,12.62
2018-09-01T04:08:23.820Z,12.59
2018-09-01T04:09:23.831Z,12.57
2018-09-01T04:10:23.845Z,12.64
2018-09-01T04:11:23.857Z,12.62
2018-09-01T04:12:23.868Z,12.65
2018-09-01T04:13:23.883Z,12.62
2018-09-01T04:14:23.899Z,12.59
2018-09-01T04:15:23.909Z,12.60
2018-09-01T04:17:23.939Z,12.62
2018-09-01T04:18:23.949Z,12.62
2018-09-01T04:19:23.963Z,12.50
2018-09-01T04:20:23.977Z,12.49
2018-09-01T04:21:23.991Z,12.50
2018-09-01T04:22:24.003Z,12.56
2018-09-01T04:23:24.016Z,12.50
2018-09-01T04:24:24.035Z,12.49
2018-09-01T04:25:24.044Z,12.42
2018-09-01T04:26:24.060Z,12.46
2018-09-01T04:27:24.098Z,12.46
2018-09-01T04:28:24.113Z,12.47
2018-09-01T04:29:24.096Z,12.50
2018-09-01T04:30:24.110Z,12.49
2018-09-01T04:31:24.126Z,12.45
2018-09-01T04:32:24.137Z,12.52
2018-09-01T04:33:24.152Z,12.41
2018-09-01T04:34:24.169Z,12.46
2018-09-01T04:35:24.178Z,12.38
2018-09-01T04:36:24.192Z,12.47
2018-09-01T04:37:24.206Z,12.47
2018-09-01T04:38:24.217Z,12.47
2018-09-01T04:39:24.230Z,12.52
2018-09-01T04:40:24.272Z,12.46
2018-09-01T04:41:24.273Z,12.52
2018-09-01T04:42:24.283Z,12.47
2018-09-01T04:43:24.283Z,12.50
2018-09-01T04:44:24.296Z,12.47
2018-09-01T04:45:24.312Z,12.47
2018-09-01T04:46:24.332Z,12.47
2018-09-01T04:47:24.356Z,12.42
2018-09-01T04:48:24.350Z,12.35
2018-09-01T04:49:24.367Z,12.41
2018-09-01T04:50:24.379Z,12.41
2018-09-01T04:51:24.393Z,12.35
2018-09-01T04:52:24.405Z,12.35
2018-09-01T04:53:24.417Z,12.37
2018-09-01T04:54:24.432Z,12.41
2018-09-01T04:55:24.445Z,12.37
2018-09-01T04:56:24.460Z,12.39
2018-09-01T04:57:24.472Z,12.41
2018-09-01T04:58:24.487Z,12.45
2018-09-01T04:59:24.500Z,12.41
2018-09-01T05:00:24.510Z,12.35
2018-09-01T05:01:24.595Z,12.45
2018-09-01T05:02:24.537Z,12.38
2018-09-01T05:03:24.551Z,12.32
2018-09-01T05:04:24.564Z,12.35
2018-09-01T05:05:24.579Z,12.35
2018-09-01T05:06:24.593Z,12.32
2018-09-01T05:07:24.610Z,12.28
2018-09-01T05:08:24.616Z,12.21
2018-09-01T05:09:24.631Z,12.27
2018-09-01T05:10:24.643Z,12.29
2018-09-01T05:11:24.661Z,12.12
2018-09-01T05:12:24.675Z,12.27
2018-09-01T05:13:24.690Z,12.24
2018-09-01T05:14:24.696Z,12.23
2018-09-01T05:15:24.721Z,12.27
2018-09-01T05:16:24.728Z,12.32
2018-09-01T05:17:24.736Z,12.34
2018-09-01T05:18:24.753Z,12.34
2018-09-01T05:19:24.764Z,12.29
2018-09-01T05:20:24.796Z,12.42
2018-09-01T05:21:24.790Z,12.35
2018-09-01T05:22:24.805Z,12.49
2018-09-01T05:23:24.818Z,12.50
2018-09-01T05:24:24.833Z,12.49
2018-09-01T05:25:24.844Z,12.50
2018-09-01T05:26:24.860Z,12.53
2018-09-01T05:27:24.869Z,12.60
2018-09-01T05:28:24.888Z,12.64
2018-09-01T05:29:24.899Z,12.64
2018-09-01T05:30:24.911Z,12.56
2018-09-01T05:31:24.934Z,12.72
2018-09-01T05:32:24.965Z,12.60
2018-09-01T05:33:24.958Z,12.67
2018-09-01T05:34:24.964Z,12.56
2018-09-01T05:35:24.981Z,12.65
2018-09-01T05:36:25.004Z,12.65
2018-09-01T05:37:25.005Z,12.68
2018-09-01T05:38:25.021Z,12.68
2018-09-01T05:39:25.041Z,12.72
2018-09-01T05:40:25.044Z,12.71
2018-09-01T05:41:25.058Z,12.70
2018-09-01T05:42:25.071Z,12.75
2018-09-01T05:43:25.084Z,12.74
2018-09-01T05:44:25.096Z,12.77
2018-09-01T05:45:25.111Z,12.79
2018-09-01T05:46:25.127Z,12.79
2018-09-01T05:47:25.140Z,12.82
2018-09-01T05:48:25.151Z,12.85
2018-09-01T05:49:25.165Z,12.87
2018-09-01T05:50:25.175Z,12.86
2018-09-01T05:51:25.195Z,12.87
2018-09-01T05:52:25.226Z,12.87
2018-09-01T05:53:25.235Z,12.95
2018-09-01T05:54:25.234Z,13.01
2018-09-01T05:55:25.305Z,12.90
2018-09-01T05:56:25.261Z,13.01
2018-09-01T05:57:25.296Z,13.01
2018-09-01T05:58:25.286Z,12.96
2018-09-01T05:59:25.299Z,13.03
2018-09-01T06:00:25.374Z,13.07
2018-09-01T06:01:25.328Z,13.07
2018-09-01T06:02:25.373Z,13.15
2018-09-01T06:03:25.356Z,13.14
2018-09-01T06:04:25.370Z,13.19
2018-09-01T06:05:25.404Z,13.20
2018-09-01T06:06:25.504Z,13.22
2018-09-01T06:07:25.413Z,13.15
2018-09-01T06:08:25.424Z,13.25
2018-09-01T06:09:25.440Z,13.20
2018-09-01T06:10:25.449Z,13.26
2018-09-01T06:11:25.468Z,13.30
2018-09-01T06:12:25.479Z,13.36
2018-09-01T06:13:25.489Z,13.32
2018-09-01T06:14:25.506Z,13.38
2018-09-01T06:15:25.515Z,13.38
2018-09-01T06:16:25.531Z,13.42
2018-09-01T06:17:25.555Z,13.38
2018-09-01T06:18:25.556Z,13.33
2018-09-01T06:19:25.573Z,13.39
2018-09-01T06:20:25.586Z,13.41
2018-09-01T06:21:25.601Z,13.39
2018-09-01T06:22:25.619Z,13.42
2018-09-01T06:23:25.639Z,13.52
2018-09-01T06:24:25.641Z,13.45
2018-09-01T06:25:25.657Z,13.52
2018-09-01T06:26:25.667Z,13.49
2018-09-01T06:27:25.690Z,13.51
2018-09-01T06:28:25.701Z,13.67
2018-09-01T06:29:25.712Z,13.63
2018-09-01T06:30:25.724Z,13.62
2018-09-01T06:31:25.734Z,13.63
2018-09-01T06:32:25.754Z,13.59
2018-09-01T06:33:25.761Z,13.69
2018-09-01T06:34:25.791Z,13.66
2018-09-01T06:35:25.994Z,13.71
2018-09-01T06:36:25.803Z,13.78
2018-09-01T06:37:25.858Z,13.77
2018-09-01T06:38:25.835Z,13.88
2018-09-01T06:39:25.843Z,13.81
2018-09-01T06:40:25.856Z,13.85
2018-09-01T06:41:25.871Z,13.81
2018-09-01T06:42:25.885Z,13.87
2018-09-01T06:43:25.900Z,13.88
2018-09-01T06:44:25.912Z,13.89
2018-09-01T06:45:25.929Z,14.02
2018-09-01T06:46:25.943Z,14.02
2018-09-01T06:47:25.956Z,14.06
2018-09-01T06:48:25.967Z,14.04
2018-09-01T06:49:26.043Z,14.10
2018-09-01T06:50:26.045Z,14.14
2018-09-01T06:51:26.059Z,14.21
2018-09-01T06:52:26.024Z,14.24
2018-09-01T06:53:26.043Z,14.28
2018-09-01T06:54:26.050Z,14.22
2018-09-01T06:55:26.082Z,14.24
2018-09-01T06:56:26.097Z,14.32
2018-09-01T06:57:26.091Z,14.39
2018-09-01T06:58:26.108Z,14.39
2018-09-01T06:59:26.247Z,14.36
2018-09-01T07:00:26.164Z,14.43
2018-09-01T07:01:26.151Z,14.52
2018-09-01T07:02:26.161Z,14.50
2018-09-01T07:03:26.176Z,14.55
2018-09-01T07:04:26.189Z,14.57
2018-09-01T07:05:26.204Z,14.58
2018-09-01T07:06:26.217Z,14.62
2018-09-01T07:07:26.246Z,14.70
2018-09-01T07:08:26.245Z,14.75
2018-09-01T07:09:26.259Z,14.75
2018-09-01T07:10:26.279Z,14.70
2018-09-01T07:11:26.285Z,14.73
2018-09-01T07:12:26.304Z,14.73
2018-09-01T07:13:26.312Z,14.84
2018-09-01T07:14:26.329Z,14.86
2018-09-01T07:15:26.345Z,14.95
2018-09-01T07:16:26.357Z,14.94
2018-09-01T07:17:26.368Z,14.98
2018-09-01T07:18:26.378Z,14.95
2018-09-01T07:19:26.389Z,14.99
2018-09-01T07:20:26.408Z,15.03
2018-09-01T07:21:26.417Z,15.14
2018-09-01T07:22:26.429Z,15.09
2018-09-01T07:23:26.443Z,15.19
2018-09-01T07:24:26.460Z,15.21
2018-09-01T07:25:26.477Z,15.28
2018-09-01T07:26:26.587Z,15.25
2018-09-01T07:27:26.504Z,15.25
2018-09-01T07:28:26.517Z,15.34
2018-09-01T07:29:26.533Z,15.38
2018-09-01T07:30:26.707Z,15.41
2018-09-01T07:31:26.949Z,15.47
2018-09-01T07:32:26.588Z,15.47
2018-09-01T07:33:26.589Z,15.49
2018-09-01T07:34:26.599Z,15.56
2018-09-01T07:35:26.612Z,15.47
2018-09-01T07:36:26.627Z,15.47
2018-09-01T07:37:26.653Z,15.65
2018-09-01T07:38:26.654Z,15.65
2018-09-01T07:39:26.670Z,15.60
2018-09-01T07:40:26.684Z,15.53
2018-09-01T07:41:26.700Z,15.69
2018-09-01T07:42:26.711Z,15.72
2018-09-01T07:43:26.732Z,15.74
2018-09-01T07:44:26.739Z,15.69
2018-09-01T07:45:26.755Z,15.75
2018-09-01T07:46:26.771Z,15.82
2018-09-01T07:47:26.785Z,15.80
2018-09-01T07:48:26.801Z,15.76
2018-09-01T07:49:26.811Z,15.76
2018-09-01T07:50:26.824Z,15.90
2018-09-01T07:51:26.850Z,15.84
2018-09-01T07:52:26.853Z,15.86
2018-09-01T07:53:26.867Z,15.92
2018-09-01T07:54:26.884Z,16.00
2018-09-01T07:55:26.904Z,16.04
2018-09-01T07:56:26.918Z,16.08
2018-09-01T07:57:26.929Z,16.11
2018-09-01T07:58:26.959Z,16.15
2018-09-01T07:59:27.261Z,16.17
2018-09-01T08:00:26.971Z,16.27
2018-09-01T08:01:26.982Z,16.28
2018-09-01T08:02:26.996Z,16.31
2018-09-01T08:03:27.014Z,16.34
2018-09-01T08:04:27.028Z,16.41
2018-09-01T08:05:27.042Z,16.43
2018-09-01T08:06:27.054Z,16.45
2018-09-01T08:07:27.119Z,16.49
2018-09-01T08:08:27.080Z,16.45
2018-09-01T08:09:27.094Z,16.49
2018-09-01T08:10:27.109Z,16.63
2018-09-01T08:11:27.126Z,16.67
2018-09-01T08:12:27.138Z,16.70
2018-09-01T08:13:27.155Z,16.71
2018-09-01T08:14:27.207Z,16.68
2018-09-01T08:15:27.181Z,16.88
2018-09-01T08:16:27.196Z,16.88
2018-09-01T08:17:27.215Z,16.83
2018-09-01T08:18:27.223Z,16.91
2018-09-01T08:19:27.238Z,16.82
2018-09-01T08:20:27.252Z,16.83
2018-09-01T08:21:27.267Z,16.81
2018-09-01T08:22:27.825Z,16.82
2018-09-01T08:23:27.294Z,16.79
2018-09-01T08:24:27.311Z,16.88
2018-09-01T08:25:27.326Z,16.81
2018-09-01T08:26:27.340Z,16.86
2018-09-01T08:27:27.377Z,16.93
2018-09-01T08:28:27.380Z,16.93
2018-09-01T08:29:27.382Z,16.93
2018-09-01T08:30:27.400Z,16.94
2018-09-01T08:31:27.422Z,17.00
2018-09-01T08:32:27.430Z,17.04
2018-09-01T08:33:27.492Z,17.08
2018-09-01T08:34:27.456Z,17.08
2018-09-01T08:35:27.468Z,17.08
2018-09-01T08:36:27.487Z,17.04
2018-09-01T08:37:27.530Z,17.18
2018-09-01T08:38:27.536Z,17.30
2018-09-01T08:39:27.528Z,17.38
2018-09-01T08:40:27.541Z,17.46
2018-09-01T08:41:27.558Z,17.44
2018-09-01T08:42:27.575Z,17.46
2018-09-01T08:43:27.586Z,17.54
2018-09-01T08:44:27.599Z,17.52
2018-09-01T08:45:27.713Z,17.62
2018-09-01T08:46:27.631Z,17.58
2018-09-01T08:47:27.652Z,17.62
2018-09-01T08:48:27.658Z,17.68
2018-09-01T08:49:27.680Z,17.64
2018-09-01T08:50:27.696Z,17.68
2018-09-01T08:51:27.706Z,17.66
2018-09-01T08:52:27.717Z,17.72
2018-09-01T08:53:27.735Z,17.90
2018-09-01T08:54:27.751Z,17.77
2018-09-01T08:55:27.757Z,17.86
2018-09-01T08:56:27.815Z,17.84
2018-09-01T08:57:27.790Z,17.92
2018-09-01T08:58:27.804Z,17.87
2018-09-01T08:59:27.820Z,17.86
2018-09-01T09:00:28.001Z,17.72
2018-09-01T09:01:27.854Z,17.78
2018-09-01T09:02:27.863Z,17.75
2018-09-01T09:03:27.876Z,17.84
2018-09-01T09:04:27.899Z,17.92
2018-09-01T09:05:27.951Z,17.90
2018-09-01T09:06:27.923Z,17.93
2018-09-01T09:07:27.945Z,17.96
2018-09-01T09:08:27.951Z,18.07
2018-09-01T09:09:28.008Z,18.10
2018-09-01T09:10:27.993Z,18.14
2018-09-01T09:11:28.002Z,18.11
2018-09-01T09:12:28.008Z,18.23
2018-09-01T09:13:28.029Z,18.21
2018-09-01T09:14:28.049Z,18.26
2018-09-01T09:15:28.054Z,18.25
2018-09-01T09:16:28.075Z,18.26
2018-09-01T09:17:28.088Z,18.23
2018-09-01T09:18:28.141Z,18.25
2018-09-01T09:19:28.112Z,18.25
2018-09-01T09:20:28.152Z,18.23
2018-09-01T09:21:28.486Z,18.30
2018-09-01T09:22:28.157Z,18.32
2018-09-01T09:23:28.179Z,18.44
2018-09-01T09:25:28.212Z,18.36
2018-09-01T09:26:28.413Z,18.36
2018-09-01T09:27:28.233Z,18.44
2018-09-01T09:28:28.256Z,18.47
2018-09-01T09:29:28.262Z,18.42
2018-09-01T09:30:28.284Z,18.39
2018-09-01T09:31:28.345Z,18.18
2018-09-01T09:32:28.325Z,17.95
2018-09-01T09:33:28.321Z,17.90
2018-09-01T09:34:28.392Z,17.92
2018-09-01T09:35:28.353Z,17.95
2018-09-01T09:36:28.560Z,18.18
2018-09-01T09:37:28.383Z,18.18
2018-09-01T09:38:28.393Z,18.30
2018-09-01T09:39:28.413Z,18.48
2018-09-01T09:40:28.420Z,18.57
2018-09-01T09:41:28.531Z,18.54
2018-09-01T09:42:28.448Z,18.57
2018-09-01T09:43:28.461Z,18.50
2018-09-01T09:44:28.533Z,18.44
2018-09-01T09:45:28.493Z,18.57
2018-09-01T09:46:28.575Z,18.54
2018-09-01T09:47:28.521Z,18.54
2018-09-01T09:48:29.205Z,18.58
2018-09-01T09:49:28.553Z,18.63
2018-09-01T09:50:28.567Z,18.76
2018-09-01T09:51:28.581Z,18.70
2018-09-01T09:52:28.603Z,18.75
2018-09-01T09:53:28.623Z,18.70
2018-09-01T09:54:28.625Z,18.70
2018-09-01T09:55:28.639Z,18.73
2018-09-01T09:56:28.707Z,18.67
2018-09-01T09:57:28.702Z,18.85
2018-09-01T09:58:28.687Z,18.87
2018-09-01T09:59:28.701Z,18.90
2018-09-01T10:00:28.716Z,18.85
2018-09-01T10:01:28.730Z,18.95
2018-09-01T10:02:28.852Z,19.08
2018-09-01T10:03:28.769Z,19.10
2018-09-01T10:04:28.775Z,19.18
2018-09-01T10:05:28.848Z,19.10
2018-09-01T10:06:28.805Z,19.21
2018-09-01T10:07:28.819Z,19.16
2018-09-01T10:08:28.834Z,19.21
2018-09-01T10:09:28.854Z,19.11
2018-09-01T10:10:28.863Z,19.13
2018-09-01T10:11:28.978Z,19.02
2018-09-01T10:12:28.896Z,19.14
2018-09-01T10:13:28.911Z,19.23
2018-09-01T10:14:28.922Z,19.23
2018-09-01T10:15:28.940Z,19.23
2018-09-01T10:16:28.952Z,19.19
2018-09-01T10:17:28.968Z,19.13
2018-09-01T10:18:28.986Z,19.11
2018-09-01T10:19:29.013Z,19.08
2018-09-01T10:20:29.074Z,19.08
2018-09-01T10:21:29.027Z,18.90
2018-09-01T10:22:29.042Z,18.72
2018-09-01T10:23:29.060Z,18.69
2018-09-01T10:24:29.073Z,18.80
2018-09-01T10:25:29.087Z,18.73
2018-09-01T10:26:29.101Z,18.91
2018-09-01T10:27:29.133Z,18.99
2018-09-01T10:28:29.132Z,19.10
2018-09-01T10:29:29.173Z,19.14
2018-09-01T10:30:29.177Z,19.32
2018-09-01T10:31:29.179Z,19.48
2018-09-01T10:32:29.190Z,19.68
2018-09-01T10:33:29.220Z,19.87
2018-09-01T10:34:29.224Z,20.01
2018-09-01T10:35:29.241Z,19.94
2018-09-01T10:36:29.252Z,19.94
2018-09-01T10:37:29.295Z,19.94
2018-09-01T10:38:29.310Z,20.01
2018-09-01T10:39:29.297Z,20.24
2018-09-01T10:40:29.316Z,20.17
2018-09-01T10:41:29.334Z,20.14
2018-09-01T10:42:29.343Z,20.20
2018-09-01T10:43:29.364Z,20.08
2018-09-01T10:44:29.378Z,19.87
2018-09-01T10:45:29.388Z,19.76
2018-09-01T10:46:29.402Z,19.62
2018-09-01T10:47:29.418Z,19.65
2018-09-01T10:48:29.434Z,19.62
2018-09-01T10:49:29.449Z,19.54
2018-09-01T10:50:29.463Z,19.47
2018-09-01T10:51:29.499Z,19.37
2018-09-01T10:52:29.537Z,19.36
2018-09-01T10:53:29.513Z,19.25
2018-09-01T10:54:29.572Z,19.21
2018-09-01T10:55:29.555Z,19.23
2018-09-01T10:56:29.557Z,19.32
2018-09-01T10:57:29.569Z,19.28
2018-09-01T10:58:29.586Z,19.36
2018-09-01T10:59:29.737Z,19.31
2018-09-01T11:00:29.620Z,19.31
2018-09-01T11:01:29.632Z,19.29
2018-09-01T11:02:29.646Z,19.39
2018-09-01T11:03:29.659Z,19.50
2018-09-01T11:04:29.674Z,19.59
2018-09-01T11:05:29.696Z,19.63
2018-09-01T11:06:29.706Z,19.68
2018-09-01T11:07:29.719Z,19.83
2018-09-01T11:08:29.740Z,19.88
2018-09-01T11:09:29.853Z,19.92
2018-09-01T11:10:29.764Z,20.10
2018-09-01T11:11:29.780Z,20.17
2018-09-01T11:12:29.795Z,20.13
2018-09-01T11:13:29.816Z,20.17
2018-09-01T11:14:29.826Z,20.18
2018-09-01T11:15:29.848Z,20.31
2018-09-01T11:16:29.857Z,20.23
2018-09-01T11:17:29.881Z,20.31
2018-09-01T11:18:29.887Z,20.36
2018-09-01T11:19:29.907Z,20.50
2018-09-01T11:20:29.920Z,20.57
2018-09-01T11:21:29.938Z,20.70
2018-09-01T11:22:29.949Z,20.69
2018-09-01T11:23:29.965Z,20.62
2018-09-01T11:24:29.978Z,20.55
2018-09-01T11:25:29.994Z,20.52
2018-09-01T11:26:30.209Z,20.52
2018-09-01T11:27:30.080Z,20.51
2018-09-01T11:28:30.041Z,20.61
2018-09-01T11:29:30.171Z,20.57
2018-09-01T11:30:30.112Z,20.72
2018-09-01T11:31:30.087Z,20.54
2018-09-01T11:32:30.118Z,20.57
2018-09-01T11:33:30.115Z,20.66
2018-09-01T11:34:30.253Z,20.74
2018-09-01T11:35:30.152Z,20.69
2018-09-01T11:36:30.164Z,20.51
2018-09-01T11:37:30.177Z,20.42
2018-09-01T11:38:30.194Z,20.54
2018-09-01T11:39:30.210Z,20.57
2018-09-01T11:40:30.233Z,20.55
2018-09-01T11:41:30.263Z,20.61
2018-09-01T11:42:30.347Z,20.69
2018-09-01T11:43:30.273Z,20.72
2018-09-01T11:44:30.289Z,20.66
2018-09-01T11:45:30.308Z,20.62
2018-09-01T11:46:30.315Z,20.54
2018-09-01T11:47:30.334Z,20.51
2018-09-01T11:48:30.373Z,20.52
2018-09-01T11:49:30.364Z,20.32
2018-09-01T11:50:30.381Z,20.03
2018-09-01T11:51:30.394Z,20.01
2018-09-01T11:52:30.425Z,20.16
2018-09-01T11:53:30.452Z,20.18
2018-09-01T11:54:30.451Z,20.14
2018-09-01T11:55:30.465Z,20.17
2018-09-01T11:56:30.496Z,20.20
2018-09-01T11:57:30.799Z,20.11
2018-09-01T11:58:30.509Z,20.06
2018-09-01T11:59:30.519Z,20.02
2018-09-01T12:00:30.535Z,20.14
2018-09-01T12:01:30.581Z,20.31
2018-09-01T12:02:30.566Z,20.42
2018-09-01T12:03:30.585Z,20.39
2018-09-01T12:04:30.597Z,20.54
2018-09-01T12:05:30.629Z,20.58
2018-09-01T12:06:30.625Z,20.64
2018-09-01T12:07:30.641Z,20.66
2018-09-01T12:08:30.665Z,20.62
2018-09-01T12:09:30.679Z,20.76
2018-09-01T12:10:30.688Z,20.55
2018-09-01T12:11:30.735Z,20.54
2018-09-01T12:12:30.720Z,20.43
2018-09-01T12:13:30.734Z,20.52
2018-09-01T12:14:30.753Z,20.57
2018-09-01T12:15:30.769Z,20.74
2018-09-01T12:16:30.781Z,20.92
2018-09-01T12:17:30.802Z,20.92
2018-09-01T12:18:30.811Z,21.06
2018-09-01T12:19:31.040Z,21.12
2018-09-01T12:20:30.847Z,21.09
2018-09-01T12:21:30.888Z,21.09
2018-09-01T12:22:30.876Z,21.19
2018-09-01T12:23:30.891Z,21.17
2018-09-01T12:24:30.907Z,21.27
2018-09-01T12:25:31.058Z,21.25
2018-09-01T12:26:30.936Z,21.03
2018-09-01T12:27:30.950Z,20.92
2018-09-01T12:28:30.986Z,20.89
2018-09-01T12:29:30.984Z,20.80
2018-09-01T12:30:31.029Z,20.94
2018-09-01T12:31:31.016Z,21.03
2018-09-01T12:32:31.037Z,21.19
2018-09-01T12:33:31.060Z,21.32
2018-09-01T12:34:31.060Z,21.43
2018-09-01T12:35:31.095Z,21.53
2018-09-01T12:36:31.095Z,21.69
2018-09-01T12:37:31.117Z,21.84
2018-09-01T12:38:31.432Z,22.05
2018-09-01T12:39:31.142Z,22.00
2018-09-01T12:40:31.157Z,22.03
2018-09-01T12:41:31.175Z,22.15
2018-09-01T12:42:31.184Z,22.33
2018-09-01T12:43:31.200Z,22.35
2018-09-01T12:44:31.217Z,22.09
2018-09-01T12:45:31.236Z,21.92
2018-09-01T12:46:31.253Z,21.91
2018-09-01T12:47:31.633Z,22.03
2018-09-01T12:48:31.287Z,21.59
2018-09-01T12:49:31.318Z,21.31
2018-09-01T12:50:31.346Z,21.28
2018-09-01T12:51:31.487Z,21.24
2018-09-01T12:52:31.344Z,21.24
2018-09-01T12:53:31.361Z,21.35
2018-09-01T12:54:31.375Z,21.42